Cheektowaga, New York
Current Conditions -  °F | °C
As of 9:54 AM on Friday 28 Nov 2014 (Local Time) from KBUF Reporting Station
Broken Clouds Broken Clouds  
Wind Chill: 11°   Ceiling: 21000
Heat Index: 23°   Visibility: 10mi
Dew Point: 13°   Wind: 14mph
Humidity: 65%   Direction: 270°W
Pressure: 30.27"   Gusts: 21mph
Location:  42.9°N, 78.74°W
Report Text: KBUF 281454Z 27012G18KT 10SM FEW045 SCT120 BKN210 M05/M11 A3027 RMK AO2 SLP261 60000 T10501106 53009
Loading
Personal Weather Stations






























Interactive Weather Map New forecast layout! Learn more

10-Day Weather Forecast

Advertisements
Track Severe Weather on mobile